Airfield :
LOGIN :

Register | Disclaimer

   EN    FR    IT 

 










Legend :    VFR   Marginal VFR   IFR   Intensive IFR   Very Intensive IFR
Visi :
Ceiling :
>= 8 km
>= 3000ft
5 to 8 km
1000 to 3000 ft
1500m to 5 km
500 to 1000 ft
800 to 1500m
200 to 500 ft
< 800m
< 200 ft
Symbols :   Thunderstorms  Fog  Heavy snow  Heavy precipitations  Wind > 20 kt
SIGMETs :     Misc.  Thunderstorms  Icing  Turbulence  Mountain Waves  Volcanic Ashes






- Airport Elevation : 218 ft
- IATA code : LBG


LFPB - Paris / Le Bourget

CURRENT METAR :
  • 210530Z AUTO 22007KT CAVOK 06/04 Q0995 BECMG 23015G30KT

EXPIRED METARs :
  • 210500Z AUTO 24010KT CAVOK 06/04 Q0995 BECMG 23015G30KT
  • 210430Z AUTO 22007KT 9999 FEW043/// SCT056/// BKN068/// ///TCU 06/05 Q0994 BECMG 23015G30KT FEW010 BKN050
  • 210400Z AUTO 24013KT 9999 -RA FEW017/// OVC054/// ///CB 06/04 Q0993 BECMG 23015G30KT FEW010 BKN050
  • 210330Z AUTO 27014KT 230V320 9999 RA BKN016/// BKN022/// BKN032/// ///CB 07/06 Q0993 BECMG 23020G40KT NSW BKN020
  • 210300Z AUTO 26019G35KT 3600 R09/1300U R07/1300U RA BR FEW013/// SCT019/// BKN024/// ///CB 07/06 Q0992 TEMPO 20030G50KT BECMG 9999 NSW BKN020

TAF AMD TAF LFPB
Valid from the 21 at 03:00 until the 22 at 00:00 UTC


210341Z 2103/2124 23015G30KT 9999 FEW010 BKN050
TEMPO 2103/2104 4000 RA
PROB40
TEMPO 2103/2104 BKN008
TEMPO 2117/2124 20025G45KT 4000 RA BKN020TCU
PROB40
TEMPO 2118/2123 2500 RA BKN017CB
ATIS : +33 1 48 62 43 92



MET'MAP, your aeronautical weather chart ! - Copyright ORBIFLY December 2007 - Disclaimer

ORBIFLY MET'MAP TEAM :

Programming & Development : Alexandra Zaïnal
Concept & original design : Baudouin d'Aumeries
Assistance for programming : Marc-Olivier Méhu
Technical & hardware support : Manuel Goepfert

Contact : metmap@orbifly.com




SOURCES & CREDITS :

   NOAA